Time;durP1;ratioP1;P1;durP2;ratioP2;P2;SDS_P1;SDS_P2;PMS_P1;PMS_P2;Temp;Humidity;BMP_temperature;BMP_pressure;BME280_temperature;BME280_humidity;BME280_pressure;Samples;Min_cycle;Max_cycle;Signal;HPM_P1;HPM_P2
2021/05/18 00:00:52;;;;;;;0.30;0.20;;;;;;;10.60;100.00;99747.16;5052772;28;20451;-51
2021/05/18 00:03:19;;;;;;;0.30;0.20;;;;;;;10.74;100.00;99759.06;5052348;28;20604;-52
2021/05/18 00:05:52;;;;;;;0.30;0.20;;;;;;;10.79;100.00;99755.28;5052580;28;20451;-51
2021/05/18 00:08:22;;;;;;;0.30;0.20;;;;;;;10.88;100.00;99757.63;5052429;28;20463;-50
2021/05/18 00:13:43;;;;;;;0.30;0.20;;;;;;;10.94;100.00;99756.50;5052293;28;20477;-51
2021/05/18 00:16:10;;;;;;;0.30;0.20;;;;;;;10.94;100.00;99760.03;5052355;28;20447;-50
2021/05/18 00:18:38;;;;;;;0.30;0.20;;;;;;;10.95;100.00;99761.75;5052253;28;20524;-51
2021/05/18 00:21:05;;;;;;;0.30;0.20;;;;;;;11.08;100.00;99770.13;5052163;28;20523;-51
2021/05/18 00:23:35;;;;;;;0.30;0.20;;;;;;;11.09;100.00;99771.84;5052080;28;20485;-50
2021/05/18 00:26:04;;;;;;;0.30;0.20;;;;;;;11.07;100.00;99779.03;5052098;28;20467;-51
2021/05/18 00:28:31;;;;;;;0.30;0.20;;;;;;;11.19;100.00;99777.69;5052264;28;20536;-51
2021/05/18 00:30:58;;;;;;;0.30;0.20;;;;;;;11.24;100.00;99776.59;5052213;28;20442;-51
2021/05/18 00:33:24;;;;;;;0.30;0.20;;;;;;;11.34;100.00;99786.84;5052132;28;20450;-52
2021/05/18 00:35:51;;;;;;;0.30;0.20;;;;;;;11.42;100.00;99784.78;5052057;28;20504;-50
2021/05/18 00:38:19;;;;;;;0.30;0.20;;;;;;;11.50;100.00;99788.84;5052272;28;20520;-51
2021/05/18 00:40:48;;;;;;;0.30;0.20;;;;;;;11.47;100.00;99791.63;5039095;28;20460;-51
2021/05/18 00:43:15;;;;;;;0.30;0.20;;;;;;;11.52;100.00;99791.47;5051904;28;21019;-50
2021/05/18 00:45:46;;;;;;;0.30;0.20;;;;;;;11.54;100.00;99789.59;5052075;28;20955;-51
2021/05/18 00:48:13;;;;;;;0.30;0.20;;;;;;;11.60;100.00;99794.66;5051825;28;20463;-50
2021/05/18 00:50:43;;;;;;;0.30;0.20;;;;;;;11.64;100.00;99796.25;5056233;28;20454;-51
2021/05/18 00:53:12;;;;;;;0.30;0.20;;;;;;;11.67;100.00;99804.16;5057981;28;20493;-51
2021/05/18 00:55:46;;;;;;;0.30;0.20;;;;;;;11.72;100.00;99803.94;5055996;28;20944;-51
2021/05/18 00:58:31;;;;;;;0.30;0.20;;;;;;;11.67;100.00;99804.16;5055596;28;20481;-51
2021/05/18 01:01:21;;;;;;;0.30;0.20;;;;;;;11.67;100.00;99804.16;5054859;28;20496;-50
2021/05/18 01:03:51;;;;;;;0.30;0.20;;;;;;;11.67;100.00;99796.16;5045304;28;20486;-51
2021/05/18 01:06:29;;;;;;;0.30;0.20;;;;;;;11.68;100.00;99797.03;5055803;28;20451;-51
2021/05/18 01:08:57;;;;;;;0.30;0.20;;;;;;;11.69;100.00;99798.75;5055756;28;20462;-51
2021/05/18 01:11:33;;;;;;;0.30;0.20;;;;;;;11.69;100.00;99796.97;5055432;28;20446;-51
2021/05/18 01:14:05;;;;;;;0.30;0.20;;;;;;;11.65;100.00;99800.69;5055768;28;20446;-51
2021/05/18 01:16:34;;;;;;;0.30;0.20;;;;;;;11.61;100.00;99798.19;5055705;28;20469;-51
2021/05/18 01:19:01;;;;;;;2.93;0.93;;;;;;;11.64;100.00;99798.91;5055315;28;20471;-50
2021/05/18 01:21:28;;;;;;;0.30;0.20;;;;;;;11.58;100.00;99797.38;5055470;28;20450;-51
2021/05/18 01:23:55;;;;;;;0.30;0.20;;;;;;;11.65;100.00;99802.44;5055168;28;20540;-50
2021/05/18 01:26:23;;;;;;;0.30;0.20;;;;;;;11.75;100.00;99809.13;5055487;28;20508;-51
2021/05/18 01:28:50;;;;;;;0.30;0.20;;;;;;;11.79;100.00;99810.81;5055255;28;20539;-52
2021/05/18 01:31:20;;;;;;;0.30;0.20;;;;;;;11.70;100.00;99813.81;5055347;28;20968;-51
2021/05/18 01:33:47;;;;;;;0.30;0.20;;;;;;;11.74;100.00;99807.41;5055140;28;20439;-50
2021/05/18 01:36:17;;;;;;;0.30;0.20;;;;;;;11.64;100.00;99812.22;5055063;28;20451;-50
2021/05/18 01:39:48;;;;;;;0.30;0.20;;;;;;;11.61;100.00;99809.69;5055561;28;20524;-51
2021/05/18 01:44:17;;;;;;;0.30;0.20;;;;;;;11.65;100.00;99811.34;5043442;28;21073;-51
2021/05/18 01:46:45;;;;;;;0.30;0.20;;;;;;;11.66;100.00;99810.41;5055240;28;20443;-51
2021/05/18 01:49:16;;;;;;;0.30;0.20;;;;;;;11.72;100.00;99810.13;5055111;28;20844;-51
2021/05/18 01:51:46;;;;;;;0.30;0.20;;;;;;;11.66;100.00;99812.19;5054905;28;20512;-51
2021/05/18 01:54:16;;;;;;;0.30;0.20;;;;;;;11.77;100.00;99817.94;5054899;28;20520;-50
2021/05/18 01:59:18;;;;;;;0.30;0.20;;;;;;;11.71;100.00;99818.19;5054525;28;20501;-51
2021/05/18 02:01:47;;;;;;;0.30;0.20;;;;;;;11.72;100.00;99822.59;5054654;28;20453;-50
2021/05/18 02:04:44;;;;;;;0.30;0.20;;;;;;;11.65;100.00;99823.75;5054625;28;20557;-50
2021/05/18 02:07:24;;;;;;;0.30;0.20;;;;;;;11.66;100.00;99815.72;5044820;28;20459;-51
2021/05/18 02:09:50;;;;;;;0.30;0.20;;;;;;;11.53;100.00;99814.50;5053570;28;20461;-51
2021/05/18 02:12:17;;;;;;;0.30;0.20;;;;;;;11.45;100.00;99817.44;5054597;28;20447;-50
2021/05/18 02:14:49;;;;;;;0.30;0.20;;;;;;;11.40;100.00;99822.09;5054289;28;20864;-51
2021/05/18 02:17:36;;;;;;;0.30;0.20;;;;;;;11.35;100.00;99828.50;5054341;28;20517;-51
2021/05/18 02:20:35;;;;;;;0.30;0.20;;;;;;;11.18;100.00;99830.03;5053143;28;20504;-51
2021/05/18 02:25:47;;;;;;;0.30;0.20;;;;;;;11.21;100.00;99834.34;5054153;28;20501;-51
2021/05/18 02:28:13;;;;;;;0.30;0.20;;;;;;;11.20;100.00;99840.59;5054005;28;20524;-51
2021/05/18 02:30:40;;;;;;;0.30;0.20;;;;;;;11.11;100.00;99833.00;5054286;28;21020;-51
2021/05/18 02:33:07;;;;;;;0.30;0.20;;;;;;;11.09;100.00;99846.31;5054050;28;20943;-51
2021/05/18 02:35:33;;;;;;;0.30;0.20;;;;;;;11.10;100.00;99839.22;5052861;28;20501;-51
2021/05/18 02:38:00;;;;;;;0.30;0.20;;;;;;;11.16;100.00;99839.88;5053835;28;20474;-51
2021/05/18 02:40:29;;;;;;;0.30;0.20;;;;;;;11.07;100.00;99842.00;5053927;28;20450;-51
2021/05/18 02:42:56;;;;;;;0.30;0.20;;;;;;;11.13;100.00;99845.31;5053793;28;20525;-50
2021/05/18 02:45:30;;;;;;;0.30;0.20;;;;;;;11.23;100.00;99843.16;5053797;28;20536;-51
2021/05/18 02:50:43;;;;;;;0.30;0.20;;;;;;;11.16;100.00;99842.53;5042402;28;20446;-51
2021/05/18 02:53:10;;;;;;;0.30;0.20;;;;;;;11.12;100.00;99834.72;5053379;28;20447;-51
2021/05/18 02:55:46;;;;;;;0.30;0.20;;;;;;;11.08;100.00;99836.63;5053587;28;20952;-51
2021/05/18 02:58:14;;;;;;;0.30;0.20;;;;;;;10.89;100.00;99841.78;5053498;28;20885;-51
2021/05/18 03:00:41;;;;;;;0.30;0.20;;;;;;;10.96;100.00;99848.63;5053667;28;20496;-50
2021/05/18 03:03:08;;;;;;;0.30;0.20;;;;;;;10.94;100.00;99841.59;5052274;28;20990;-50
2021/05/18 03:05:34;;;;;;;0.30;0.20;;;;;;;11.08;100.00;99851.72;5053215;28;20486;-51
2021/05/18 03:08:01;;;;;;;0.30;0.20;;;;;;;11.05;100.00;99852.69;5053204;28;20840;-51
2021/05/18 03:10:28;;;;;;;0.30;0.20;;;;;;;10.97;100.00;99853.00;5053738;28;20458;-51
2021/05/18 03:12:55;;;;;;;0.30;0.20;;;;;;;11.05;100.00;99850.03;5053249;28;20447;-51
2021/05/18 03:15:22;;;;;;;0.30;0.20;;;;;;;10.95;100.00;99849.50;5053364;28;20439;-51
2021/05/18 03:17:49;;;;;;;0.30;0.20;;;;;;;10.98;100.00;99846.75;5052136;28;20470;-51
2021/05/18 03:20:17;;;;;;;0.30;0.20;;;;;;;10.94;100.00;99853.09;5053133;28;20890;-51
2021/05/18 03:22:44;;;;;;;0.30;0.20;;;;;;;10.87;100.00;99854.25;5052966;28;20818;-51
2021/05/18 03:25:11;;;;;;;0.30;0.20;;;;;;;11.08;100.00;99855.25;5053164;28;20544;-51
2021/05/18 03:27:38;;;;;;;0.30;0.20;;;;;;;11.08;100.00;99859.69;5052920;28;20470;-50
2021/05/18 03:30:23;;;;;;;0.30;0.20;;;;;;;10.93;100.00;99856.69;5053069;28;20502;-51
2021/05/18 03:35:36;;;;;;;0.30;0.20;;;;;;;10.80;100.00;99862.50;5053069;28;20443;-50
2021/05/18 03:38:16;;;;;;;0.30;0.20;;;;;;;10.73;100.00;99861.00;5052752;28;20832;-50
2021/05/18 03:40:50;;;;;;;0.30;0.20;;;;;;;10.73;100.00;99864.53;5052768;28;20504;-50
2021/05/18 04:26:58;;;;;;;0.30;0.20;;;;;;;10.79;100.00;99869.59;5052215;28;20975;-51
2021/05/18 04:40:43;;;;;;;0.30;0.20;;;;;;;11.12;100.00;99899.44;5056102;28;20501;-51
2021/05/18 04:59:06;;;;;;;0.30;0.20;;;;;;;11.70;100.00;99923.81;5054579;28;20482;-51
2021/05/18 05:01:48;;;;;;;0.30;0.20;;;;;;;11.76;100.00;99928.03;5056119;28;20449;-51
2021/05/18 05:09:23;;;;;;;0.30;0.20;;;;;;;11.78;100.00;99932.38;5055478;28;20907;-51
2021/05/18 05:14:37;;;;;;;0.30;0.20;;;;;;;11.86;100.00;99922.31;5055564;28;20525;-51
2021/05/18 05:17:04;;;;;;;3.03;1.80;;;;;;;12.07;100.00;99931.25;5055306;28;20451;-51
2021/05/18 05:19:31;;;;;;;0.30;0.20;;;;;;;12.05;100.00;99937.56;5055471;28;20568;-51
2021/05/18 05:21:59;;;;;;;0.30;0.20;;;;;;;11.95;100.00;99945.06;5055645;28;20532;-50
2021/05/18 05:24:26;;;;;;;0.30;0.20;;;;;;;12.04;100.00;99950.00;5055100;28;20486;-50
2021/05/18 05:26:54;;;;;;;0.30;0.20;;;;;;;12.03;100.00;99950.06;5055420;28;20920;-50
2021/05/18 05:29:22;;;;;;;0.30;0.20;;;;;;;12.14;100.00;99954.03;5055189;28;20458;-50
2021/05/18 05:31:49;;;;;;;0.30;0.20;;;;;;;12.04;100.00;99954.47;5055571;28;20871;-50
2021/05/18 05:34:18;;;;;;;0.30;0.20;;;;;;;12.14;100.00;99955.84;5055134;28;20947;-50
2021/05/18 05:36:46;;;;;;;0.30;0.20;;;;;;;12.35;100.00;99952.31;5055029;28;20508;-51
2021/05/18 05:39:22;;;;;;;0.30;0.20;;;;;;;12.35;100.00;99948.78;5055270;28;20473;-50
2021/05/18 05:41:53;;;;;;;0.30;0.20;;;;;;;12.59;100.00;99945.06;5054170;28;20939;-51
2021/05/18 05:44:21;;;;;;;0.30;0.20;;;;;;;12.43;100.00;99946.66;5053688;28;20958;-50
2021/05/18 05:46:48;;;;;;;0.30;0.20;;;;;;;13.24;100.00;99944.03;5054974;28;20496;-51
2021/05/18 05:49:15;;;;;;;0.30;0.20;;;;;;;13.45;100.00;99934.19;5054954;28;20532;-50
2021/05/18 05:51:42;;;;;;;0.30;0.20;;;;;;;13.32;100.00;99935.69;5054865;28;20446;-51
2021/05/18 05:54:09;;;;;;;0.30;0.20;;;;;;;13.41;100.00;99945.06;5054749;28;20455;-51
2021/05/18 05:56:36;;;;;;;0.30;0.20;;;;;;;13.71;100.00;99938.31;5054657;28;20568;-51
2021/05/18 05:59:05;;;;;;;0.30;0.20;;;;;;;13.85;100.00;99943.88;5054698;28;20855;-51
2021/05/18 06:01:32;;;;;;;0.30;0.20;;;;;;;13.47;100.00;99935.00;5054683;28;20505;-51
2021/05/18 06:04:00;;;;;;;0.30;0.20;;;;;;;14.26;100.00;99942.81;5054902;28;20447;-51
2021/05/18 06:06:27;;;;;;;0.30;0.20;;;;;;;14.81;96.35;99943.63;5054512;28;20494;-51
2021/05/18 06:08:54;;;;;;;0.30;0.20;;;;;;;14.91;97.18;99944.84;5054530;28;20529;-51
2021/05/18 06:11:45;;;;;;;0.30;0.20;;;;;;;15.02;95.67;99950.50;5054459;28;20447;-52
2021/05/18 06:43:35;;;;;;;0.30;0.20;;;;;;;14.72;98.25;99976.19;5053922;28;20454;-51
2021/05/18 06:48:31;;;;;;;0.30;0.20;;;;;;;14.51;97.32;99973.63;5053525;28;20471;-51
2021/05/18 06:50:58;;;;;;;0.30;0.20;;;;;;;14.66;97.93;99972.00;5053494;28;20450;-51
2021/05/18 06:53:25;;;;;;;0.30;0.20;;;;;;;14.57;98.57;99979.63;5053725;28;20521;-51
2021/05/18 06:55:53;;;;;;;0.30;0.20;;;;;;;14.89;95.24;99986.03;5053902;28;20443;-51
2021/05/18 07:01:08;;;;;;;0.90;0.67;;;;;;;14.55;96.41;99986.88;5053460;28;20493;-51
2021/05/18 07:03:46;;;;;;;0.30;0.20;;;;;;;14.64;94.77;99991.75;5053734;28;20450;-51
2021/05/18 07:11:20;;;;;;;0.37;0.20;;;;;;;14.61;94.36;99992.75;5053382;28;20500;-51
2021/05/18 07:13:47;;;;;;;0.30;0.20;;;;;;;14.55;94.74;100003.78;5053191;28;20453;-51
2021/05/18 07:16:14;;;;;;;0.30;0.30;;;;;;;14.26;94.47;100002.50;5053145;28;20447;-51
2021/05/18 07:18:40;;;;;;;0.30;0.20;;;;;;;14.49;95.29;99996.91;5053409;28;20479;-51
2021/05/18 07:21:07;;;;;;;0.30;0.20;;;;;;;14.74;94.92;99998.38;5053239;28;20520;-51
2021/05/18 07:23:34;;;;;;;0.30;0.20;;;;;;;14.80;93.10;99995.38;5051757;28;20455;-51
2021/05/18 07:26:03;;;;;;;0.30;0.20;;;;;;;14.79;93.61;100005.22;5051250;28;21066;-51
2021/05/18 07:28:32;;;;;;;0.30;0.20;;;;;;;15.00;93.07;100005.06;5051601;28;20471;-51
2021/05/18 07:31:00;;;;;;;0.30;0.20;;;;;;;14.95;91.98;100005.31;5051783;28;20505;-52
2021/05/18 07:33:27;;;;;;;0.30;0.20;;;;;;;15.10;90.23;100001.00;5051866;28;20455;-51
2021/05/18 07:35:57;;;;;;;0.30;0.20;;;;;;;14.76;91.44;99993.81;5050176;28;20447;-51
2021/05/18 07:38:25;;;;;;;0.40;0.20;;;;;;;15.01;90.50;100002.31;5051307;28;20463;-51
2021/05/18 07:40:52;;;;;;;0.30;0.20;;;;;;;14.93;90.75;99991.13;5038265;28;20581;-51
2021/05/18 07:43:19;;;;;;;0.30;0.20;;;;;;;15.15;89.28;99998.06;5051612;28;20492;-51
2021/05/18 07:45:57;;;;;;;0.30;0.20;;;;;;;15.35;88.26;99995.19;5051293;28;20490;-51
2021/05/18 07:48:40;;;;;;;0.30;0.20;;;;;;;15.46;87.29;99992.81;5051109;28;20469;-51
2021/05/18 08:00:35;;;;;;;0.30;0.20;;;;;;;15.53;84.12;99982.66;5051370;28;20439;-51
2021/05/18 08:07:47;;;;;;;0.30;0.20;;;;;;;15.51;81.24;99985.41;5050757;28;20505;-51
2021/05/18 08:10:21;;;;;;;0.30;0.20;;;;;;;15.28;81.73;99993.81;5051567;28;20455;-51
2021/05/18 08:12:47;;;;;;;0.30;0.20;;;;;;;15.56;81.45;99988.69;5050992;28;20473;-51
2021/05/18 08:20:56;;;;;;;0.30;0.20;;;;;;;15.46;79.10;99973.19;5050728;28;20935;-51
2021/05/18 09:01:45;;;;;;;0.40;0.20;;;;;;;17.61;68.65;99939.19;5050952;28;20486;-51
2021/05/18 09:50:49;;;;;;;0.40;0.20;;;;;;;18.03;67.98;99932.91;5053397;28;20446;-51
2021/05/18 10:35:13;;;;;;;0.40;0.20;;;;;;;16.15;77.50;99964.94;5051813;28;20524;-51
2021/05/18 10:37:30;;;;;;;0.40;0.20;;;;;;;15.34;84.03;99967.53;5052187;28;20481;-51
2021/05/18 10:40:25;;;;;;;0.40;0.20;;;;;;;15.35;86.21;99979.13;5052841;28;20467;-51
2021/05/18 10:43:19;;;;;;;0.40;0.20;;;;;;;15.20;87.73;99979.94;5042640;28;20447;-52
2021/05/18 10:45:55;;;;;;;0.40;0.20;;;;;;;14.73;89.19;99975.25;5046929;28;20545;-52
2021/05/18 10:48:30;;;;;;;0.50;0.50;;;;;;;14.59;92.55;99977.75;5052253;28;20466;-52
2021/05/18 10:50:58;;;;;;;0.40;0.20;;;;;;;14.40;95.19;99978.63;5052561;28;20450;-52
2021/05/18 10:53:28;;;;;;;0.30;0.20;;;;;;;14.32;96.11;99969.25;5052098;28;20942;-52
2021/05/18 10:56:10;;;;;;;0.40;0.20;;;;;;;14.61;97.25;99959.81;5052236;28;20820;-52
2021/05/18 10:58:38;;;;;;;0.40;0.20;;;;;;;14.75;97.76;99963.50;5038888;28;20857;-52
2021/05/18 11:01:05;;;;;;;0.30;0.20;;;;;;;14.50;98.91;99965.69;5052185;28;20470;-52
2021/05/18 11:03:34;;;;;;;0.40;0.20;;;;;;;14.19;100.00;99960.94;5052516;28;20451;-52
2021/05/18 11:06:06;;;;;;;0.30;0.20;;;;;;;14.40;99.31;99959.91;5052166;28;20984;-51
2021/05/18 11:08:34;;;;;;;0.40;0.20;;;;;;;14.52;96.36;99958.44;5052206;28;20467;-52
2021/05/18 11:11:02;;;;;;;0.30;0.20;;;;;;;14.45;97.71;99963.25;5051837;28;20466;-52
2021/05/18 11:13:34;;;;;;;0.30;0.20;;;;;;;14.32;99.76;99970.09;5052258;28;20452;-52
2021/05/18 11:16:01;;;;;;;0.30;0.20;;;;;;;14.17;96.51;99966.38;5052033;28;20946;-51
2021/05/18 11:18:31;;;;;;;0.40;0.20;;;;;;;14.61;95.88;99970.50;5051612;28;20501;-51
2021/05/18 11:21:09;;;;;;;0.30;0.20;;;;;;;14.58;92.46;99968.84;5051869;28;20451;-52
2021/05/18 11:23:36;;;;;;;0.30;0.20;;;;;;;14.07;95.18;99983.78;5051686;28;20961;-52
2021/05/18 11:26:12;;;;;;;0.30;0.20;;;;;;;14.30;95.75;99971.13;5050514;28;20487;-52
2021/05/18 11:28:46;;;;;;;0.30;0.20;;;;;;;14.22;96.71;99974.16;5051974;28;20987;-51
2021/05/18 11:31:20;;;;;;;0.30;0.20;;;;;;;14.21;96.46;99969.75;5051846;28;21010;-51
2021/05/18 11:33:49;;;;;;;0.30;0.20;;;;;;;14.62;93.24;99967.75;5051826;28;20830;-52
2021/05/18 11:36:18;;;;;;;0.30;0.20;;;;;;;14.81;95.47;99978.41;5051754;28;20454;-52
2021/05/18 11:38:52;;;;;;;0.30;0.20;;;;;;;14.69;95.52;99963.84;5050537;28;21023;-51
2021/05/18 11:41:24;;;;;;;0.40;0.20;;;;;;;15.09;96.34;99964.47;5051539;28;20455;-52
2021/05/18 11:43:54;;;;;;;0.30;0.20;;;;;;;15.01;94.97;99963.97;5051430;28;20447;-52
2021/05/18 11:46:22;;;;;;;0.30;0.20;;;;;;;15.10;96.15;99961.69;5051437;28;20813;-52
2021/05/18 11:48:59;;;;;;;0.30;0.20;;;;;;;15.34;95.75;99959.50;5050868;28;21213;-52
2021/05/18 11:51:45;;;;;;;0.40;0.20;;;;;;;15.48;97.57;99965.94;5050840;28;20504;-52
2021/05/18 11:54:37;;;;;;;0.30;0.20;;;;;;;15.33;93.83;99957.78;5051440;28;20443;-52
2021/05/18 11:57:05;;;;;;;0.33;0.20;;;;;;;15.72;96.05;99958.41;5038838;28;20462;-54
2021/05/18 11:59:35;;;;;;;0.40;0.20;;;;;;;15.50;91.90;99956.91;5054155;28;20489;-51
2021/05/18 12:02:05;;;;;;;0.40;0.20;;;;;;;15.87;93.19;99952.22;5052258;28;20819;-52
2021/05/18 12:04:37;;;;;;;0.30;0.20;;;;;;;16.05;91.32;99964.59;5051268;28;20493;-52
2021/05/18 12:07:12;;;;;;;0.40;0.30;;;;;;;16.13;90.53;99956.09;5051691;28;20555;-52
2021/05/18 12:09:41;;;;;;;0.40;0.20;;;;;;;16.49;91.35;99954.00;5051766;28;20902;-52
2021/05/18 12:12:18;;;;;;;0.40;0.20;;;;;;;17.03;86.41;99942.78;5051599;28;20451;-52
2021/05/18 12:14:50;;;;;;;0.40;0.20;;;;;;;16.98;84.77;99952.94;5051361;28;20473;-51
2021/05/18 12:17:25;;;;;;;0.40;0.20;;;;;;;17.55;81.87;99947.63;5051342;28;20524;-52
2021/05/18 12:19:52;;;;;;;0.40;0.20;;;;;;;17.60;79.07;99945.50;5038896;28;20450;-52
2021/05/18 12:22:19;;;;;;;0.40;0.20;;;;;;;17.63;78.61;99935.41;5051589;28;20467;-51
2021/05/18 12:24:46;;;;;;;0.40;0.20;;;;;;;17.64;76.57;99930.91;5045649;28;20471;-51
2021/05/18 12:27:13;;;;;;;0.40;0.20;;;;;;;17.82;76.89;99937.84;5051525;28;20490;-52
2021/05/18 12:29:52;;;;;;;0.40;0.20;;;;;;;16.99;79.58;99927.78;5051156;28;20472;-51
2021/05/18 12:32:34;;;;;;;0.40;0.20;;;;;;;17.44;82.25;99926.81;5049639;28;20509;-52
2021/05/18 12:35:01;;;;;;;0.40;0.20;;;;;;;17.63;82.62;99923.81;5051667;28;20450;-52
2021/05/18 12:37:40;;;;;;;0.40;0.20;;;;;;;17.69;82.45;99935.09;5051805;28;20684;-51
2021/05/18 12:40:13;;;;;;;0.40;0.20;;;;;;;18.15;80.17;99933.94;5050934;28;20450;-52
2021/05/18 12:42:42;;;;;;;0.40;0.20;;;;;;;17.89;79.85;99931.09;5050642;28;20520;-51
2021/05/18 12:45:20;;;;;;;0.40;0.20;;;;;;;17.99;77.12;99943.00;5051397;28;20584;-52
2021/05/18 12:47:53;;;;;;;0.40;0.20;;;;;;;17.61;77.75;99931.97;5051452;28;20502;-52
2021/05/18 12:50:20;;;;;;;0.40;0.20;;;;;;;18.02;74.97;99937.41;5053382;28;20958;-52
2021/05/18 12:52:52;;;;;;;0.40;0.20;;;;;;;17.73;74.31;99925.00;5054945;28;20485;-52
2021/05/18 12:55:23;;;;;;;0.40;0.20;;;;;;;18.15;73.23;99931.25;5054755;28;20446;-52
2021/05/18 12:58:02;;;;;;;0.40;0.20;;;;;;;18.45;68.91;99923.81;5054730;28;20474;-52
2021/05/18 13:00:35;;;;;;;0.40;0.30;;;;;;;18.24;68.86;99933.34;5055174;28;20489;-52
2021/05/18 13:03:14;;;;;;;0.40;0.20;;;;;;;18.48;70.13;99933.50;5054751;28;20492;-52
2021/05/18 13:05:43;;;;;;;0.40;0.20;;;;;;;18.23;67.90;99927.09;5054817;28;20443;-52
2021/05/18 13:08:17;;;;;;;0.40;0.20;;;;;;;18.04;70.08;99938.19;5054784;28;20494;-52
2021/05/18 13:13:23;;;;;;;0.40;0.20;;;;;;;18.37;70.69;99928.00;5042105;28;20457;-52
2021/05/18 13:15:51;;;;;;;0.40;0.20;;;;;;;18.12;71.46;99926.94;5054583;28;20478;-52
2021/05/18 13:18:18;;;;;;;0.40;0.20;;;;;;;17.69;74.40;99943.16;5054467;28;20551;-51
2021/05/18 13:20:54;;;;;;;0.40;0.20;;;;;;;17.44;76.95;99938.41;5054802;28;20477;-52
2021/05/18 13:28:42;;;;;;;0.40;0.20;;;;;;;17.64;74.69;99950.59;5053818;28;20474;-51
2021/05/18 13:31:09;;;;;;;0.77;0.77;;;;;;;17.15;74.24;99950.09;5054633;28;20451;-51
2021/05/18 13:33:36;;;;;;;0.40;0.20;;;;;;;16.98;74.64;99956.47;5054611;28;20834;-51
2021/05/18 13:36:03;;;;;;;0.40;0.20;;;;;;;16.92;75.34;99950.63;5054250;28;20450;-52
2021/05/18 13:38:33;;;;;;;0.40;0.20;;;;;;;16.48;77.32;99962.16;5053980;28;21022;-51
2021/05/18 13:41:01;;;;;;;0.40;0.20;;;;;;;16.57;76.56;99951.72;5054378;28;20516;-51
2021/05/18 13:43:28;;;;;;;0.40;0.20;;;;;;;16.52;76.73;99958.31;5054543;28;20455;-51
2021/05/18 13:45:54;;;;;;;0.40;0.20;;;;;;;16.87;72.49;99954.47;5054857;28;20447;-51
2021/05/18 13:48:21;;;;;;;0.40;0.20;;;;;;;16.86;72.92;99957.25;5054052;28;20494;-51
2021/05/18 13:50:47;;;;;;;0.40;0.20;;;;;;;16.71;73.20;99950.06;5053931;28;20447;-51
2021/05/18 13:53:14;;;;;;;0.40;0.20;;;;;;;16.90;71.20;99945.34;5053939;28;20524;-51
2021/05/18 13:55:42;;;;;;;0.40;0.20;;;;;;;16.90;72.29;99947.16;5053536;28;20443;-51
2021/05/18 13:58:08;;;;;;;0.40;0.20;;;;;;;16.96;73.10;99949.47;5053731;28;20920;-52
2021/05/18 14:00:35;;;;;;;0.30;0.20;;;;;;;16.94;76.68;99948.72;5054073;28;20451;-51
2021/05/18 14:03:03;;;;;;;0.50;0.47;;;;;;;16.91;73.89;99946.22;5054070;28;20816;-51
2021/05/18 14:05:30;;;;;;;0.40;0.20;;;;;;;16.56;75.90;99943.75;5054856;28;20856;-51
2021/05/18 14:08:36;;;;;;;0.40;0.20;;;;;;;16.99;73.95;99934.03;5054471;28;20491;-52
2021/05/18 14:11:17;;;;;;;0.40;0.20;;;;;;;17.01;75.99;99934.81;5054198;28;20919;-51
2021/05/18 14:13:55;;;;;;;0.40;0.20;;;;;;;16.61;74.78;99930.94;5053897;28;20446;-51
2021/05/18 14:16:23;;;;;;;0.40;0.20;;;;;;;16.92;75.95;99931.81;5053407;28;20450;-51
2021/05/18 14:18:54;;;;;;;0.40;0.20;;;;;;;16.85;73.34;99923.25;5053520;28;20474;-52
2021/05/18 14:21:22;;;;;;;0.40;0.20;;;;;;;16.81;72.61;99930.66;5040791;28;20505;-51
2021/05/18 14:26:22;;;;;;;0.40;0.20;;;;;;;16.87;72.13;99916.88;5053748;28;20520;-51
2021/05/18 14:28:48;;;;;;;0.40;0.20;;;;;;;16.68;73.23;99924.28;5053820;28;20494;-51
2021/05/18 14:31:16;;;;;;;0.40;0.20;;;;;;;16.91;73.59;99914.00;5053378;28;20500;-51
2021/05/18 14:33:44;;;;;;;0.30;0.20;;;;;;;17.31;73.79;99915.97;5053811;28;21011;-51
2021/05/18 14:36:12;;;;;;;0.30;0.20;;;;;;;17.42;70.01;99902.72;5053904;28;20447;-52
2021/05/18 14:39:00;;;;;;;0.40;0.20;;;;;;;17.79;70.96;99907.59;5053871;28;20486;-51
2021/05/18 14:46:52;;;;;;;0.40;0.20;;;;;;;17.62;67.35;99904.13;5053275;28;20972;-52
2021/05/18 14:54:53;;;;;;;0.40;0.20;;;;;;;17.62;68.58;99903.25;5054181;28;20529;-52
2021/05/18 14:57:19;;;;;;;0.40;0.20;;;;;;;17.30;70.09;99900.81;5054218;28;20486;-51
2021/05/18 14:59:47;;;;;;;0.40;0.20;;;;;;;17.15;70.12;99904.44;5053618;28;20490;-51
2021/05/18 15:02:13;;;;;;;0.40;0.20;;;;;;;17.08;70.17;99909.31;5053605;28;20529;-51
2021/05/18 15:04:40;;;;;;;0.40;0.20;;;;;;;17.20;69.77;99906.84;5053138;28;20455;-51
2021/05/18 15:07:08;;;;;;;0.40;0.20;;;;;;;17.08;69.72;99908.44;5053557;28;20522;-52
2021/05/18 15:09:37;;;;;;;0.37;0.20;;;;;;;17.65;68.55;99903.06;5053851;28;20508;-52
2021/05/18 15:12:04;;;;;;;0.40;0.20;;;;;;;17.93;66.81;99903.03;5053163;28;20516;-51
2021/05/18 15:14:31;;;;;;;0.40;0.20;;;;;;;18.16;67.33;99900.69;5052934;28;20466;-51
2021/05/18 15:16:58;;;;;;;0.40;0.30;;;;;;;18.54;66.50;99904.38;5053064;28;20970;-51
2021/05/18 15:19:26;;;;;;;0.40;0.20;;;;;;;17.92;65.18;99900.44;5053743;28;20692;-52
2021/05/18 15:21:54;;;;;;;0.40;0.20;;;;;;;17.95;66.82;99902.94;5054250;28;20466;-52
2021/05/18 15:24:20;;;;;;;0.40;0.20;;;;;;;18.15;66.80;99907.88;5053152;28;20455;-52
2021/05/18 15:26:47;;;;;;;0.40;0.20;;;;;;;17.96;67.73;99910.94;5052452;28;21002;-51
2021/05/18 15:29:15;;;;;;;0.40;0.20;;;;;;;17.85;69.03;99910.75;5052386;28;20976;-52
2021/05/18 15:31:42;;;;;;;0.40;0.20;;;;;;;17.94;65.14;99907.44;5052665;28;20478;-52
2021/05/18 15:34:09;;;;;;;0.40;0.20;;;;;;;17.77;65.20;99913.94;5052445;28;20457;-52
2021/05/18 15:36:38;;;;;;;0.40;0.20;;;;;;;17.88;63.92;99904.31;5052492;28;20565;-51
2021/05/18 15:39:06;;;;;;;0.40;0.20;;;;;;;17.57;63.07;99914.31;5052145;28;20471;-51
2021/05/18 15:41:33;;;;;;;0.40;0.20;;;;;;;17.25;64.95;99908.25;5052012;28;20458;-51
2021/05/18 15:44:00;;;;;;;0.40;0.20;;;;;;;17.47;65.75;99926.59;5051904;28;20454;-52
2021/05/18 15:46:26;;;;;;;0.30;0.20;;;;;;;17.33;65.94;99923.91;5047533;28;20547;-52
2021/05/18 15:48:53;;;;;;;0.40;0.20;;;;;;;16.94;68.32;99925.41;5049454;28;20490;-52
2021/05/18 15:51:20;;;;;;;0.40;0.20;;;;;;;16.58;69.53;99926.63;5052126;28;20450;-52
2021/05/18 15:53:46;;;;;;;0.40;0.20;;;;;;;16.88;69.71;99921.28;5051834;28;20462;-52
2021/05/18 15:56:13;;;;;;;0.40;0.20;;;;;;;16.78;70.28;99921.91;5051608;28;20885;-52
2021/05/18 15:58:40;;;;;;;0.33;0.20;;;;;;;16.50;74.70;99928.03;5051987;28;20533;-53
2021/05/18 16:01:07;;;;;;;0.30;0.20;;;;;;;16.12;78.21;99930.25;5052006;28;20447;-53
2021/05/18 16:03:33;;;;;;;0.40;0.20;;;;;;;15.44;79.63;99935.78;5052044;28;20450;-52
2021/05/18 16:06:03;;;;;;;0.30;0.20;;;;;;;15.68;79.36;99929.13;5051697;28;20477;-52
2021/05/18 16:11:05;;;;;;;0.40;0.20;;;;;;;15.69;78.92;99935.34;5051955;28;20504;-52
2021/05/18 16:13:33;;;;;;;0.30;0.20;;;;;;;15.75;77.37;99932.31;5051361;28;20793;-52
2021/05/18 16:16:05;;;;;;;0.30;0.20;;;;;;;15.39;76.05;99932.50;5051504;28;20892;-51
2021/05/18 16:18:34;;;;;;;0.40;0.20;;;;;;;15.50;76.03;99935.47;5050057;28;20467;-52
2021/05/18 16:21:01;;;;;;;0.30;0.20;;;;;;;15.57;76.32;99939.53;5051325;28;20457;-52
2021/05/18 16:23:28;;;;;;;0.30;0.20;;;;;;;15.74;73.23;99935.06;5051381;28;20459;-52
2021/05/18 16:25:56;;;;;;;0.30;0.20;;;;;;;15.65;73.81;99944.50;5050971;28;20454;-52
2021/05/18 16:28:24;;;;;;;0.30;0.20;;;;;;;15.59;73.83;99934.97;5051585;28;20536;-52
2021/05/18 16:30:51;;;;;;;0.30;0.20;;;;;;;15.75;73.17;99940.34;5051542;28;20529;-52
2021/05/18 16:33:18;;;;;;;0.30;0.20;;;;;;;15.60;73.75;99942.06;5051364;28;20479;-52
2021/05/18 16:35:45;;;;;;;0.30;0.20;;;;;;;15.58;74.72;99935.91;5051018;28;20451;-51
2021/05/18 16:38:12;;;;;;;0.30;0.20;;;;;;;15.69;74.66;99938.03;5051066;28;20473;-51
2021/05/18 16:40:39;;;;;;;0.30;0.20;;;;;;;15.56;73.74;99939.59;5033352;28;20443;-51
2021/05/18 16:43:07;;;;;;;0.30;0.20;;;;;;;15.69;74.80;99932.66;5051330;28;20466;-51
2021/05/18 16:45:35;;;;;;;0.30;0.20;;;;;;;15.70;73.72;99937.06;5051327;28;20450;-52
2021/05/18 16:48:03;;;;;;;0.30;0.20;;;;;;;15.68;74.21;99949.69;5050835;28;20498;-52